createdAt,value
2018-12-09T00:00:10.567Z,98415.36
2018-12-09T00:02:38.844Z,98418.42
2018-12-09T00:05:07.201Z,98419.89
2018-12-09T00:07:35.598Z,98398.80
2018-12-09T00:10:04.519Z,98399.39
2018-12-09T00:12:32.888Z,98396.36
2018-12-09T00:15:01.525Z,98395.25
2018-12-09T00:17:29.811Z,98395.22
2018-12-09T00:19:58.200Z,98385.09
2018-12-09T00:22:26.543Z,98379.78
2018-12-09T00:24:54.853Z,98365.69
2018-12-09T00:27:23.130Z,98357.58
2018-12-09T00:29:51.453Z,98358.03
2018-12-09T00:32:19.782Z,98350.61
2018-12-09T00:34:48.100Z,98344.55
2018-12-09T00:37:16.478Z,98332.69
2018-12-09T00:39:44.777Z,98315.48
2018-12-09T00:42:13.071Z,98318.44
2018-12-09T00:44:41.519Z,98316.03
2018-12-09T00:47:09.871Z,98315.83
2018-12-09T00:49:38.240Z,98303.28
2018-12-09T00:52:06.617Z,98308.60
2018-12-09T00:54:34.926Z,98302.89
2018-12-09T00:57:03.369Z,98305.91
2018-12-09T00:59:31.777Z,98299.66
2018-12-09T01:02:02.063Z,98297.11
2018-12-09T01:04:30.397Z,98293.59
2018-12-09T01:06:58.720Z,98287.95
2018-12-09T01:09:27.025Z,98299.09
2018-12-09T01:11:55.331Z,98282.06
2018-12-09T01:14:23.696Z,98291.66
2018-12-09T01:16:51.991Z,98289.34
2018-12-09T01:19:20.272Z,98278.20
2018-12-09T01:21:48.889Z,98277.97
2018-12-09T01:24:17.294Z,98280.63
2018-12-09T01:26:45.595Z,98270.78
2018-12-09T01:29:13.918Z,98274.86
2018-12-09T01:31:42.396Z,98279.71
2018-12-09T01:34:10.681Z,98288.56
2018-12-09T01:36:39.070Z,98272.76
2018-12-09T01:39:07.417Z,98286.17
2018-12-09T01:41:35.758Z,98288.27
2018-12-09T01:44:04.512Z,98298.66
2018-12-09T01:46:33.230Z,98294.22
2018-12-09T01:49:01.526Z,98294.30
2018-12-09T01:51:29.843Z,98295.80
2018-12-09T01:54:09.543Z,98310.14
2018-12-09T01:56:39.582Z,98313.33
2018-12-09T01:59:08.005Z,98317.02
2018-12-09T02:01:36.385Z,98320.41
2018-12-09T02:04:05.166Z,98327.39
2018-12-09T02:06:34.008Z,98318.44
2018-12-09T02:09:02.286Z,98324.34
2018-12-09T02:11:30.808Z,98327.38
2018-12-09T02:13:59.144Z,98329.62
2018-12-09T02:16:27.522Z,98327.89
2018-12-09T02:19:15.425Z,98336.02
2018-12-09T02:21:44.552Z,98331.23
2018-12-09T02:24:12.958Z,98340.23
2018-12-09T02:26:41.487Z,98335.73
2018-12-09T02:29:09.822Z,98334.28
2018-12-09T02:31:38.257Z,98332.80
2018-12-09T02:34:06.605Z,98340.60
2018-12-09T02:36:35.344Z,98339.16
2018-12-09T02:39:04.479Z,98339.30
2018-12-09T02:41:33.026Z,98340.77
2018-12-09T02:44:01.321Z,98340.66
2018-12-09T02:46:29.674Z,98342.37
2018-12-09T02:48:58.005Z,98343.58
2018-12-09T02:51:26.381Z,98336.64
2018-12-09T02:53:54.706Z,98341.93
2018-12-09T02:56:23.171Z,98342.93
2018-12-09T02:58:52.071Z,98344.66
2018-12-09T03:01:20.414Z,98345.48
2018-12-09T03:03:48.960Z,98348.99
2018-12-09T03:06:17.268Z,98356.95
2018-12-09T03:08:45.640Z,98358.10
2018-12-09T03:11:14.016Z,98367.69
2018-12-09T03:13:42.464Z,98372.09
2018-12-09T03:16:10.772Z,98368.00
2018-12-09T03:18:39.100Z,98360.20
2018-12-09T03:21:07.894Z,98367.95
2018-12-09T03:23:36.179Z,98371.87
2018-12-09T03:26:04.714Z,98374.53
2018-12-09T03:28:33.005Z,98379.45
2018-12-09T03:31:01.468Z,98389.53
2018-12-09T03:33:30.773Z,98390.11
2018-12-09T03:35:59.066Z,98404.09
2018-12-09T03:38:27.366Z,98409.77
2018-12-09T03:40:55.752Z,98420.08
2018-12-09T03:43:24.059Z,98429.69
2018-12-09T03:45:52.457Z,98429.17
2018-12-09T03:48:20.964Z,98447.63
2018-12-09T03:50:49.293Z,98446.15
2018-12-09T03:53:17.621Z,98453.84
2018-12-09T03:55:46.411Z,98466.07
2018-12-09T03:58:14.703Z,98459.78
2018-12-09T04:00:43.016Z,98455.47
2018-12-09T04:03:11.428Z,98464.20
2018-12-09T04:05:39.876Z,98473.31
2018-12-09T04:08:08.774Z,98477.06
2018-12-09T04:10:37.186Z,98478.30
2018-12-09T04:13:05.506Z,98481.52
2018-12-09T04:15:35.753Z,98482.47
2018-12-09T04:18:04.078Z,98483.01
2018-12-09T04:20:32.369Z,98483.32
2018-12-09T04:23:00.703Z,98486.30
2018-12-09T04:25:29.024Z,98481.55
2018-12-09T04:27:57.339Z,98482.94
2018-12-09T04:30:25.866Z,98478.17
2018-12-09T04:32:54.264Z,98484.50
2018-12-09T04:35:22.529Z,98485.70
2018-12-09T04:37:50.861Z,98488.01
2018-12-09T04:40:19.176Z,98492.61
2018-12-09T04:42:47.879Z,98501.45
2018-12-09T04:45:16.231Z,98497.30
2018-12-09T04:47:45.034Z,98497.59
2018-12-09T04:50:13.361Z,98502.38
2018-12-09T04:52:41.647Z,98502.69
2018-12-09T04:55:10.148Z,98507.69
2018-12-09T04:57:38.489Z,98514.48
2018-12-09T05:03:19.962Z,98510.66
2018-12-09T05:05:48.371Z,98516.05
2018-12-09T05:08:16.654Z,98515.97
2018-12-09T05:10:45.389Z,98519.00
2018-12-09T05:13:13.971Z,98516.86
2018-12-09T05:15:42.309Z,98521.35
2018-12-09T05:18:10.612Z,98527.72
2018-12-09T05:20:38.933Z,98523.19
2018-12-09T05:23:07.232Z,98520.81
2018-12-09T05:25:35.517Z,98522.88
2018-12-09T05:28:04.013Z,98532.00
2018-12-09T05:30:32.426Z,98529.84
2018-12-09T05:33:00.799Z,98525.17
2018-12-09T05:35:29.305Z,98531.61
2018-12-09T05:37:57.617Z,98542.81
2018-12-09T05:40:25.926Z,98541.27
2018-12-09T05:42:54.280Z,98549.88
2018-12-09T05:45:22.731Z,98553.70
2018-12-09T05:47:51.017Z,98560.77
2018-12-09T05:50:19.361Z,98568.13
2018-12-09T05:52:47.669Z,98563.14
2018-12-09T05:55:15.952Z,98574.37
2018-12-09T05:57:44.936Z,98583.92
2018-12-09T06:00:13.312Z,98583.30
2018-12-09T06:02:53.941Z,98587.97
2018-12-09T06:05:22.459Z,98581.84
2018-12-09T06:07:51.376Z,98590.98
2018-12-09T06:10:19.718Z,98596.49
2018-12-09T06:12:48.092Z,98604.18
2018-12-09T06:15:16.528Z,98612.17
2018-12-09T06:17:45.113Z,98610.30
2018-12-09T06:20:13.674Z,98615.59
2018-12-09T06:22:41.956Z,98623.80
2018-12-09T06:25:10.317Z,98628.47
2018-12-09T06:27:38.699Z,98621.83
2018-12-09T06:30:08.379Z,98629.72
2018-12-09T06:32:36.787Z,98627.64
2018-12-09T06:35:05.286Z,98627.13
2018-12-09T06:37:33.702Z,98632.11
2018-12-09T06:40:02.103Z,98631.36
2018-12-09T06:42:30.449Z,98625.05
2018-12-09T06:44:58.758Z,98635.73
2018-12-09T06:47:27.096Z,98626.68
2018-12-09T06:49:55.416Z,98638.02
2018-12-09T06:52:23.760Z,98635.10
2018-12-09T06:54:52.083Z,98633.55
2018-12-09T06:57:20.445Z,98642.06
2018-12-09T06:59:48.752Z,98645.08
2018-12-09T07:02:17.480Z,98646.50
2018-12-09T07:04:45.793Z,98641.40
2018-12-09T07:07:14.096Z,98653.24
2018-12-09T07:09:42.400Z,98658.52
2018-12-09T07:12:10.757Z,98661.01
2018-12-09T07:14:39.036Z,98672.65
2018-12-09T07:17:07.369Z,98683.34
2018-12-09T07:19:35.696Z,98679.70
2018-12-09T07:22:04.020Z,98680.20
2018-12-09T07:24:33.028Z,98687.34
2018-12-09T07:27:01.332Z,98687.95
2018-12-09T07:29:29.712Z,98692.22
2018-12-09T07:31:58.038Z,98697.11
2018-12-09T07:34:26.337Z,98688.48
2018-12-09T07:36:54.668Z,98699.11
2018-12-09T07:39:23.050Z,98690.28
2018-12-09T07:41:51.359Z,98688.22
2018-12-09T07:44:19.683Z,98696.53
2018-12-09T07:46:48.153Z,98708.14
2018-12-09T07:49:16.490Z,98718.34
2018-12-09T07:51:44.789Z,98722.50
2018-12-09T07:54:13.138Z,98724.69
2018-12-09T07:56:41.533Z,98742.87
2018-12-09T07:59:09.998Z,98739.31
2018-12-09T08:01:38.633Z,98737.66
2018-12-09T08:04:06.976Z,98748.27
2018-12-09T08:06:35.268Z,98743.28
2018-12-09T08:09:04.674Z,98742.63
2018-12-09T08:11:33.016Z,98741.08
2018-12-09T08:14:01.303Z,98746.41
2018-12-09T08:16:29.697Z,98750.35
2018-12-09T08:18:57.999Z,98754.61
2018-12-09T08:21:26.350Z,98764.46
2018-12-09T08:23:54.666Z,98769.56
2018-12-09T08:26:23.257Z,98773.02
2018-12-09T08:28:51.525Z,98770.10
2018-12-09T08:31:20.177Z,98776.19
2018-12-09T08:33:48.458Z,98779.76
2018-12-09T08:36:16.796Z,98788.27
2018-12-09T08:38:45.158Z,98781.02
2018-12-09T08:41:13.472Z,98797.84
2018-12-09T08:43:41.744Z,98796.39
2018-12-09T08:46:10.096Z,98802.20
2018-12-09T08:48:38.426Z,98811.14
2018-12-09T08:51:06.730Z,98816.52
2018-12-09T08:53:35.676Z,98809.16
2018-12-09T08:56:04.042Z,98813.67
2018-12-09T08:58:32.385Z,98819.18
2018-12-09T09:01:00.817Z,98825.20
2018-12-09T09:03:29.125Z,98831.80
2018-12-09T09:05:57.456Z,98837.94
2018-12-09T09:08:25.767Z,98838.45
2018-12-09T09:10:54.074Z,98842.41
2018-12-09T09:13:22.388Z,98845.89
2018-12-09T09:15:50.806Z,98845.64
2018-12-09T09:18:19.145Z,98852.30
2018-12-09T09:20:47.433Z,98844.39
2018-12-09T09:23:15.831Z,98847.83
2018-12-09T09:25:44.211Z,98855.42
2018-12-09T09:28:13.211Z,98854.28
2018-12-09T09:30:41.654Z,98863.13
2018-12-09T09:33:10.117Z,98855.11
2018-12-09T09:35:38.456Z,98860.30
2018-12-09T09:38:06.900Z,98868.52
2018-12-09T09:40:35.282Z,98869.23
2018-12-09T09:43:03.630Z,98869.77
2018-12-09T09:45:31.992Z,98870.70
2018-12-09T09:48:00.345Z,98874.36
2018-12-09T09:50:28.674Z,98873.20
2018-12-09T09:52:57.127Z,98883.30
2018-12-09T09:55:25.426Z,98889.03
2018-12-09T09:57:53.742Z,98896.52
2018-12-09T10:00:22.201Z,98886.52
2018-12-09T10:02:50.509Z,98895.87
2018-12-09T10:05:18.834Z,98895.16
2018-12-09T10:07:47.195Z,98893.81
2018-12-09T10:10:15.599Z,98892.66
2018-12-09T10:12:43.935Z,98889.85
2018-12-09T10:15:12.335Z,98893.09
2018-12-09T10:17:40.645Z,98895.37
2018-12-09T10:20:08.961Z,98900.89
2018-12-09T10:22:37.422Z,98898.79
2018-12-09T10:25:06.081Z,98895.87
2018-12-09T10:27:34.381Z,98898.98
2018-12-09T10:30:02.754Z,98895.66
2018-12-09T10:32:31.090Z,98900.36
2018-12-09T10:34:59.378Z,98900.36
2018-12-09T10:37:27.749Z,98890.14
2018-12-09T10:39:56.096Z,98894.33
2018-12-09T10:42:24.399Z,98910.15
2018-12-09T10:44:53.300Z,98905.54
2018-12-09T10:47:21.632Z,98913.89
2018-12-09T10:49:49.955Z,98907.23
2018-12-09T10:52:18.291Z,98911.30
2018-12-09T10:54:46.603Z,98919.09
2018-12-09T10:57:14.907Z,98919.92
2018-12-09T10:59:43.244Z,98925.22
2018-12-09T11:02:16.995Z,98916.16
2018-12-09T11:04:45.444Z,98913.89
2018-12-09T11:07:13.848Z,98926.59
2018-12-09T11:09:42.160Z,98913.80
2018-12-09T11:12:10.584Z,98921.48
2018-12-09T11:14:39.049Z,98926.48
2018-12-09T11:17:07.430Z,98917.95
2018-12-09T11:19:35.931Z,98924.81
2018-12-09T11:22:04.361Z,98935.41
2018-12-09T11:24:32.702Z,98941.14
2018-12-09T11:27:01.228Z,98939.45
2018-12-09T11:29:29.911Z,98936.63
2018-12-09T11:31:58.281Z,98939.56
2018-12-09T11:34:26.604Z,98940.92
2018-12-09T11:36:54.909Z,98935.54
2018-12-09T11:39:23.229Z,98940.44
2018-12-09T11:41:51.598Z,98943.25
2018-12-09T11:44:19.927Z,98952.92
2018-12-09T11:46:48.271Z,98951.88
2018-12-09T11:49:16.786Z,98956.23
2018-12-09T11:51:45.103Z,98952.80
2018-12-09T11:54:13.451Z,98954.09
2018-12-09T11:56:41.800Z,98960.30
2018-12-09T11:59:11.886Z,98945.28
2018-12-09T12:01:40.446Z,98964.75
2018-12-09T12:04:08.827Z,98958.83
2018-12-09T12:06:37.170Z,98974.83
2018-12-09T12:09:06.288Z,98970.81
2018-12-09T12:11:35.059Z,98975.20
2018-12-09T12:14:03.516Z,98988.11
2018-12-09T12:16:31.873Z,98976.03
2018-12-09T12:19:00.197Z,98987.47
2018-12-09T12:21:28.527Z,98987.17
2018-12-09T12:23:56.949Z,98992.59
2018-12-09T12:26:25.504Z,98985.59
2018-12-09T12:28:53.782Z,98990.69
2018-12-09T12:31:22.088Z,98991.10
2018-12-09T12:33:50.839Z,98993.92
2018-12-09T12:36:19.141Z,98987.98
2018-12-09T12:38:47.437Z,98994.75
2018-12-09T12:41:15.861Z,98997.38
2018-12-09T12:43:44.229Z,98999.98
2018-12-09T12:46:12.571Z,98999.86
2018-12-09T12:48:41.035Z,98999.92
2018-12-09T12:51:09.380Z,99002.36
2018-12-09T12:53:44.476Z,99006.46
2018-12-09T12:56:22.663Z,99032.33
2018-12-09T12:58:51.890Z,99037.86
2018-12-09T13:01:20.318Z,99028.77
2018-12-09T13:03:50.139Z,99029.89
2018-12-09T13:08:44.623Z,99036.50
2018-12-09T13:11:13.084Z,99035.19
2018-12-09T13:13:41.553Z,99031.75
2018-12-09T13:16:10.198Z,99041.33
2018-12-09T13:18:38.844Z,99045.39
2018-12-09T13:21:07.217Z,99043.31
2018-12-09T13:23:35.722Z,99051.22
2018-12-09T13:26:34.647Z,99067.16
2018-12-09T13:29:03.938Z,99072.97
2018-12-09T13:31:32.802Z,99090.75
2018-12-09T13:34:01.562Z,99090.50
2018-12-09T13:36:29.926Z,99113.97
2018-12-09T13:38:58.335Z,99130.09
2018-12-09T13:41:26.796Z,99122.02
2018-12-09T13:43:55.141Z,99126.44
2018-12-09T13:46:23.672Z,99125.17
2018-12-09T13:48:54.801Z,99133.49
2018-12-09T13:51:23.069Z,99141.50
2018-12-09T13:57:28.150Z,99128.00
2018-12-09T14:02:47.340Z,99130.03
2018-12-09T14:05:15.692Z,99137.36
2018-12-09T14:07:44.605Z,99136.41
2018-12-09T14:10:13.080Z,99152.12
2018-12-09T14:12:41.362Z,99147.74
2018-12-09T14:15:09.757Z,99148.31
2018-12-09T14:17:38.219Z,99164.66
2018-12-09T14:20:07.152Z,99174.83
2018-12-09T14:22:35.487Z,99169.42
2018-12-09T14:25:04.519Z,99187.63
2018-12-09T14:27:32.857Z,99181.19
2018-12-09T14:30:01.130Z,99183.06
2018-12-09T14:32:29.586Z,99193.91
2018-12-09T14:34:58.250Z,99194.95
2018-12-09T14:37:26.653Z,99202.73
2018-12-09T14:39:55.008Z,99225.88
2018-12-09T14:42:23.340Z,99219.59
2018-12-09T14:46:04.077Z,99231.17
2018-12-09T14:48:32.427Z,99241.70
2018-12-09T14:51:00.778Z,99245.06
2018-12-09T14:53:29.160Z,99250.46
2018-12-09T14:55:57.491Z,99247.57
2018-12-09T14:58:25.850Z,99250.98
2018-12-09T15:00:54.273Z,99257.54
2018-12-09T15:03:22.659Z,99267.06
2018-12-09T15:05:51.034Z,99259.41
2018-12-09T15:08:19.357Z,99262.73
2018-12-09T15:10:47.722Z,99279.52
2018-12-09T15:13:16.200Z,99289.02
2018-12-09T15:15:44.653Z,99294.50
2018-12-09T15:18:13.275Z,99298.20
2018-12-09T15:20:41.613Z,99308.02
2018-12-09T15:23:09.937Z,99324.28
2018-12-09T15:25:38.317Z,99335.42
2018-12-09T15:28:06.640Z,99325.09
2018-12-09T15:30:34.966Z,99332.38
2018-12-09T15:33:03.292Z,99351.99
2018-12-09T15:35:31.570Z,99350.27
2018-12-09T15:38:00.012Z,99355.37
2018-12-09T15:40:28.504Z,99348.75
2018-12-09T15:42:56.806Z,99351.18
2018-12-09T15:45:25.214Z,99354.61
2018-12-09T15:47:53.586Z,99361.39
2018-12-09T15:50:22.013Z,99364.03
2018-12-09T15:52:50.332Z,99370.78
2018-12-09T15:55:18.661Z,99366.68
2018-12-09T15:57:46.954Z,99379.53
2018-12-09T16:00:15.613Z,99385.86
2018-12-09T16:02:43.964Z,99385.48
2018-12-09T16:05:12.947Z,99398.55
2018-12-09T16:07:41.306Z,99396.57
2018-12-09T16:10:09.691Z,99393.59
2018-12-09T16:12:38.070Z,99401.09
2018-12-09T16:15:06.498Z,99412.54
2018-12-09T16:17:34.933Z,99424.78
2018-12-09T16:20:04.474Z,99426.88
2018-12-09T16:22:32.988Z,99432.56
2018-12-09T16:25:01.273Z,99426.08
2018-12-09T16:27:29.574Z,99436.23
2018-12-09T16:29:58.357Z,99443.95
2018-12-09T16:32:27.144Z,99437.67
2018-12-09T16:34:55.646Z,99447.34
2018-12-09T16:37:23.959Z,99465.83
2018-12-09T16:39:52.288Z,99484.31
2018-12-09T16:42:20.649Z,99482.16
2018-12-09T16:44:49.073Z,99484.31
2018-12-09T16:47:17.351Z,99489.17
2018-12-09T16:49:45.627Z,99485.02
2018-12-09T16:52:13.995Z,99487.48
2018-12-09T16:54:42.309Z,99500.18
2018-12-09T16:57:10.649Z,99520.95
2018-12-09T16:59:39.007Z,99535.69
2018-12-09T17:02:07.339Z,99535.81
2018-12-09T17:04:35.644Z,99533.38
2018-12-09T17:07:04.251Z,99544.98
2018-12-09T17:09:32.618Z,99541.18
2018-12-09T17:12:00.948Z,99529.03
2018-12-09T17:14:29.287Z,99543.37
2018-12-09T17:16:57.676Z,99547.19
2018-12-09T17:19:26.031Z,99545.13
2018-12-09T17:21:54.390Z,99557.78
2018-12-09T17:24:22.740Z,99558.58
2018-12-09T17:26:51.049Z,99577.66
2018-12-09T17:29:19.638Z,99582.80
2018-12-09T17:31:47.952Z,99586.02
2018-12-09T17:34:16.282Z,99590.72
2018-12-09T17:36:44.680Z,99598.28
2018-12-09T17:39:12.997Z,99591.99
2018-12-09T17:41:41.331Z,99595.28
2018-12-09T17:44:09.678Z,99605.86
2018-12-09T17:46:38.082Z,99617.34
2018-12-09T17:49:06.443Z,99615.03
2018-12-09T17:51:34.936Z,99628.66
2018-12-09T17:54:03.259Z,99634.95
2018-12-09T17:56:31.634Z,99643.13
2018-12-09T17:58:59.986Z,99642.31
2018-12-09T18:01:28.373Z,99653.05
2018-12-09T18:03:56.683Z,99661.46
2018-12-09T18:06:25.115Z,99671.92
2018-12-09T18:08:53.482Z,99685.76
2018-12-09T18:11:21.794Z,99679.66
2018-12-09T18:13:50.370Z,99679.14
2018-12-09T18:16:18.691Z,99692.91
2018-12-09T18:18:47.060Z,99695.20
2018-12-09T18:21:15.451Z,99702.59
2018-12-09T18:23:43.883Z,99704.32
2018-12-09T18:26:12.202Z,99719.93
2018-12-09T18:28:40.553Z,99726.72
2018-12-09T18:31:08.847Z,99732.08
2018-12-09T18:33:37.305Z,99736.13
2018-12-09T18:36:06.081Z,99741.98
2018-12-09T18:38:34.610Z,99743.36
2018-12-09T18:41:02.939Z,99758.47
2018-12-09T18:43:31.292Z,99761.91
2018-12-09T18:45:59.635Z,99767.92
2018-12-09T18:48:28.074Z,99776.12
2018-12-09T18:50:56.457Z,99785.59
2018-12-09T18:53:24.809Z,99789.36
2018-12-09T18:55:53.170Z,99789.13
2018-12-09T18:58:21.834Z,99796.19
2018-12-09T19:00:50.210Z,99801.91
2018-12-09T19:03:18.581Z,99807.37
2018-12-09T19:05:47.099Z,99808.40
2018-12-09T19:08:15.510Z,99799.92
2018-12-09T19:10:43.938Z,99820.09
2018-12-09T19:13:12.317Z,99822.12
2018-12-09T19:15:40.728Z,99838.06
2018-12-09T19:18:09.115Z,99848.20
2018-12-09T19:20:37.653Z,99838.75
2018-12-09T19:23:06.165Z,99853.06
2018-12-09T19:25:34.488Z,99855.75
2018-12-09T19:28:02.833Z,99865.66
2018-12-09T19:30:31.215Z,99865.49
2018-12-09T19:32:59.550Z,99877.80
2018-12-09T19:35:28.053Z,99887.66
2018-12-09T19:37:56.358Z,99886.97
2018-12-09T19:40:24.660Z,99881.56
2018-12-09T19:42:53.078Z,99895.42
2018-12-09T19:45:21.396Z,99902.37
2018-12-09T19:47:49.749Z,99918.70
2018-12-09T19:50:18.425Z,99922.18
2018-12-09T19:52:46.753Z,99931.39
2018-12-09T19:55:15.118Z,99965.52
2018-12-09T19:57:43.468Z,99965.92
2018-12-09T20:00:11.776Z,99934.77
2018-12-09T20:02:40.113Z,99960.26
2018-12-09T20:05:09.029Z,99968.41
2018-12-09T20:07:37.327Z,99962.52
2018-12-09T20:10:07.052Z,99959.92
2018-12-09T20:12:35.370Z,99956.06
2018-12-09T20:15:03.842Z,99968.55
2018-12-09T20:17:32.175Z,99967.55
2018-12-09T20:20:00.541Z,99976.02
2018-12-09T20:22:28.857Z,99981.33
2018-12-09T20:24:57.193Z,99988.41
2018-12-09T20:27:25.719Z,99986.23
2018-12-09T20:29:54.101Z,99992.80
2018-12-09T20:32:22.428Z,99993.30
2018-12-09T20:34:50.778Z,100006.59
2018-12-09T20:37:19.111Z,100007.27
2018-12-09T20:39:47.409Z,100016.84
2018-12-09T20:42:15.762Z,100010.06
2018-12-09T20:44:44.137Z,100018.47
2018-12-09T20:47:12.439Z,100010.94
2018-12-09T20:49:41.239Z,100031.89
2018-12-09T20:52:09.553Z,100019.41
2018-12-09T20:54:37.878Z,100035.83
2018-12-09T20:57:06.192Z,100052.85
2018-12-09T20:59:34.519Z,100062.48
2018-12-09T21:02:02.996Z,100067.79
2018-12-09T21:04:31.749Z,100077.20
2018-12-09T21:07:00.229Z,100087.11
2018-12-09T21:09:28.531Z,100081.53
2018-12-09T21:11:57.598Z,100098.69
2018-12-09T21:14:25.942Z,100095.45
2018-12-09T21:16:54.348Z,100105.44
2018-12-09T21:19:22.720Z,100095.81
2018-12-09T21:21:51.120Z,100103.69
2018-12-09T21:24:25.718Z,100099.79
2018-12-09T21:26:49.825Z,100103.31
2018-12-09T21:29:18.103Z,100106.66
2018-12-09T21:31:46.470Z,100121.69
2018-12-09T21:34:14.907Z,100130.80
2018-12-09T21:36:43.557Z,100131.27
2018-12-09T21:39:11.967Z,100122.37
2018-12-09T21:41:40.442Z,100125.56
2018-12-09T21:44:09.051Z,100133.16
2018-12-09T21:46:37.350Z,100146.27
2018-12-09T21:49:05.676Z,100137.27
2018-12-09T21:51:33.973Z,100145.11
2018-12-09T21:54:02.398Z,100166.64
2018-12-09T21:56:30.811Z,100166.30
2018-12-09T21:58:59.140Z,100166.40
2018-12-09T22:01:27.514Z,100165.05
2018-12-09T22:03:55.927Z,100174.38
2018-12-09T22:06:24.292Z,100170.36
2018-12-09T22:08:52.634Z,100175.41
2018-12-09T22:11:21.044Z,100168.17
2018-12-09T22:13:49.376Z,100173.02
2018-12-09T22:16:17.696Z,100183.41
2018-12-09T22:18:46.409Z,100188.31
2018-12-09T22:21:16.499Z,100198.16
2018-12-09T22:23:44.993Z,100203.52
2018-12-09T22:26:13.363Z,100206.36
2018-12-09T22:28:41.830Z,100216.16
2018-12-09T22:31:10.328Z,100213.34
2018-12-09T22:33:38.953Z,100219.99
2018-12-09T22:36:07.449Z,100222.45
2018-12-09T22:38:35.853Z,100226.77
2018-12-09T22:41:04.657Z,100235.56
2018-12-09T22:43:33.002Z,100243.66
2018-12-09T22:46:01.364Z,100243.97
2018-12-09T22:48:29.735Z,100248.55
2018-12-09T22:50:58.122Z,100254.81
2018-12-09T22:53:26.440Z,100255.28
2018-12-09T22:55:54.857Z,100259.41
2018-12-09T22:58:23.171Z,100257.37
2018-12-09T23:00:57.371Z,100264.98
2018-12-09T23:03:25.743Z,100273.72
2018-12-09T23:05:54.060Z,100278.80
2018-12-09T23:08:22.447Z,100281.56
2018-12-09T23:10:50.820Z,100289.71
2018-12-09T23:13:20.330Z,100292.64
2018-12-09T23:15:48.744Z,100296.84
2018-12-09T23:18:17.069Z,100298.03
2018-12-09T23:20:46.113Z,100303.38
2018-12-09T23:23:14.753Z,100302.77
2018-12-09T23:25:43.103Z,100312.41
2018-12-09T23:28:11.476Z,100318.19
2018-12-09T23:30:39.865Z,100314.22
2018-12-09T23:33:08.194Z,100320.69
2018-12-09T23:35:36.928Z,100319.69
2018-12-09T23:38:05.289Z,100321.38
2018-12-09T23:40:34.016Z,100321.81
2018-12-09T23:43:03.411Z,100324.08
2018-12-09T23:45:36.425Z,100336.23
2018-12-09T23:48:04.782Z,100336.16
2018-12-09T23:50:33.261Z,100339.36
2018-12-09T23:53:01.575Z,100339.47
2018-12-09T23:55:29.857Z,100353.09
2018-12-09T23:57:58.176Z,100355.29
